Time;durP1;ratioP1;P1;durP2;ratioP2;P2;SDS_P1;SDS_P2;PMS_P1;PMS_P2;Temp;Humidity;BMP_temperature;BMP_pressure;BME280_temperature;BME280_humidity;BME280_pressure;Samples;Min_cycle;Max_cycle;Signal;HPM_P1;HPM_P2
2021/11/03 00:04:25;;;;;;;36.00;29.50;;;;;;;6.43;92.95;99266.13;228960;1197;138135;-74
2021/11/03 00:09:27;;;;;;;31.60;28.10;;;;;;;6.48;93.09;99268.84;228971;1196;138533;-72
2021/11/03 00:14:29;;;;;;;34.90;27.20;;;;;;;6.58;93.39;99264.09;228721;1196;139856;-72
2021/11/03 00:19:31;;;;;;;31.20;26.60;;;;;;;6.67;93.58;99264.98;228930;1197;139193;-72
2021/11/03 00:24:34;;;;;;;34.10;28.30;;;;;;;6.75;93.44;99269.76;228975;1197;138349;-72
2021/11/03 00:29:36;;;;;;;33.00;27.70;;;;;;;6.78;93.66;99270.48;229026;1196;138333;-69
2021/11/03 00:34:38;;;;;;;33.00;28.40;;;;;;;6.72;93.62;99267.27;228790;1180;138428;-72
2021/11/03 00:39:42;;;;;;;30.30;25.60;;;;;;;6.75;93.84;99260.27;228907;1181;139913;-71
2021/11/03 00:44:44;;;;;;;28.40;23.40;;;;;;;6.83;93.85;99263.47;229098;1197;138930;-71
2021/11/03 00:49:45;;;;;;;31.20;25.40;;;;;;;6.94;93.87;99260.13;229001;1197;139681;-71
2021/11/03 00:54:48;;;;;;;30.70;24.50;;;;;;;7.01;93.81;99261.95;228873;1196;138898;-72
2021/11/03 00:59:50;;;;;;;29.20;24.20;;;;;;;7.04;93.68;99265.89;228875;1197;138473;-71
2021/11/03 01:04:52;;;;;;;24.70;22.00;;;;;;;7.01;93.84;99263.18;229048;1197;138318;-73
2021/11/03 01:09:53;;;;;;;24.50;20.00;;;;;;;7.01;94.01;99266.55;228769;1196;139192;-75
2021/11/03 01:14:55;;;;;;;23.90;20.20;;;;;;;7.02;93.98;99266.48;229274;1197;139343;-74
2021/11/03 01:19:57;;;;;;;21.70;18.70;;;;;;;7.07;94.08;99267.29;229094;1197;208828;-75
2021/11/03 01:24:58;;;;;;;23.20;20.50;;;;;;;7.09;93.99;99269.42;229569;1199;139011;-76
2021/11/03 01:30:00;;;;;;;23.60;20.80;;;;;;;7.12;93.87;99269.27;229299;1196;138546;-72
2021/11/03 01:35:04;;;;;;;24.00;20.60;;;;;;;7.12;93.72;99274.35;229374;1197;138525;-73
2021/11/03 01:40:09;;;;;;;24.40;20.80;;;;;;;7.03;93.60;99279.24;229271;1196;138665;-72
2021/11/03 01:45:15;;;;;;;23.20;20.30;;;;;;;7.02;93.85;99277.47;229655;1195;139220;-72
2021/11/03 01:50:37;;;;;;;24.10;20.50;;;;;;;7.04;93.88;99273.11;229319;1195;142167;-71
2021/11/03 01:55:48;;;;;;;23.00;19.50;;;;;;;7.06;94.17;99281.60;229210;1196;138922;-71
2021/11/03 02:00:54;;;;;;;20.80;18.30;;;;;;;7.06;94.26;99284.02;229319;1196;138990;-71
2021/11/03 02:05:58;;;;;;;;;;;;;;;7.07;94.29;99284.13;229449;1196;138541;-72
2021/11/03 02:11:00;;;;;;;23.60;20.90;;;;;;;7.09;94.04;99276.88;229340;1196;124073;-72
2021/11/03 02:16:04;;;;;;;25.70;21.50;;;;;;;7.08;93.73;99280.48;229354;1196;138434;-72
2021/11/03 02:21:08;;;;;;;24.10;21.50;;;;;;;7.08;93.99;99277.08;229387;1196;139005;-74
2021/11/03 02:26:34;;;;;;;25.40;20.60;;;;;;;7.11;93.91;99284.20;229477;1196;139595;-73
2021/11/03 02:31:41;;;;;;;25.40;22.70;;;;;;;7.14;93.66;99290.26;229392;1196;139154;-72
2021/11/03 02:37:28;;;;;;;28.10;23.30;;;;;;;7.12;93.51;99288.77;229399;1202;138122;-72
2021/11/03 02:42:34;;;;;;;24.20;21.60;;;;;;;7.08;93.64;99294.54;229210;1187;138953;-73
2021/11/03 02:47:35;;;;;;;23.30;19.80;;;;;;;7.11;93.75;99286.84;229501;1196;139047;-72
2021/11/03 02:52:37;;;;;;;23.00;20.50;;;;;;;7.15;93.40;99287.58;229484;1196;138657;-71
2021/11/03 02:57:39;;;;;;;21.80;18.60;;;;;;;7.18;93.24;99293.16;229416;1195;139095;-72
2021/11/03 03:02:41;;;;;;;23.50;20.60;;;;;;;7.19;93.15;99302.67;229599;1196;138614;-72
2021/11/03 03:07:43;;;;;;;25.30;21.30;;;;;;;7.19;93.02;99305.55;229276;1196;138365;-69
2021/11/03 03:12:44;;;;;;;22.60;19.20;;;;;;;7.17;92.99;99309.55;229317;1189;138990;-73
2021/11/03 03:17:46;;;;;;;21.50;19.00;;;;;;;7.16;93.01;99313.89;229460;1195;139075;-68
2021/11/03 03:22:48;;;;;;;21.40;18.40;;;;;;;7.15;93.15;99312.05;229206;1195;138985;-71
2021/11/03 03:27:49;;;;;;;18.50;16.30;;;;;;;7.19;92.96;99313.11;229237;1189;138712;-71
2021/11/03 03:32:51;;;;;;;23.10;20.70;;;;;;;7.18;92.64;99314.10;229277;1195;138715;-71
2021/11/03 03:37:52;;;;;;;21.50;19.20;;;;;;;7.15;92.70;99317.16;229540;1196;138686;-76
2021/11/03 03:42:55;;;;;;;19.50;17.50;;;;;;;7.09;92.81;99320.55;229496;1197;138382;-72
2021/11/03 03:47:56;;;;;;;23.10;19.50;;;;;;;7.10;93.05;99321.00;229587;1196;139384;-71
2021/11/03 03:52:58;;;;;;;20.40;18.20;;;;;;;7.14;93.23;99320.59;229553;1196;138740;-73
2021/11/03 03:58:00;;;;;;;22.80;19.60;;;;;;;7.20;92.74;99318.38;230215;1196;138697;-72
2021/11/03 04:03:02;;;;;;;23.20;19.50;;;;;;;7.15;92.44;99314.31;229957;1196;138338;-71
2021/11/03 04:08:04;;;;;;;21.80;18.90;;;;;;;7.12;92.62;99322.98;229294;1195;138639;-74
2021/11/03 04:13:07;;;;;;;22.10;19.80;;;;;;;7.16;92.76;99326.86;229385;1196;139348;-72
2021/11/03 04:18:08;;;;;;;20.30;17.90;;;;;;;7.17;92.77;99326.61;229511;1196;138991;-72
2021/11/03 04:23:10;;;;;;;21.30;18.40;;;;;;;7.21;92.35;99324.39;229384;1197;138977;-72
2021/11/03 04:28:13;;;;;;;20.40;18.20;;;;;;;7.20;92.41;99327.34;230434;1196;138394;-73
2021/11/03 04:33:16;;;;;;;22.80;19.20;;;;;;;7.15;92.37;99331.52;230170;1195;137974;-71
2021/11/03 04:38:17;;;;;;;21.70;17.60;;;;;;;7.06;92.53;99339.00;229225;1203;138431;-71
2021/11/03 04:43:19;;;;;;;20.50;18.30;;;;;;;7.05;92.84;99348.25;228996;1196;139308;-70
2021/11/03 04:48:21;;;;;;;21.40;18.80;;;;;;;7.13;92.56;99347.11;229212;1199;139310;-72
2021/11/03 04:53:23;;;;;;;21.40;19.00;;;;;;;7.11;92.23;99357.61;229080;1197;138454;-73
2021/11/03 04:58:25;;;;;;;21.60;19.10;;;;;;;7.11;92.19;99366.75;229178;1199;138332;-73
2021/11/03 05:03:27;;;;;;;20.20;18.10;;;;;;;7.09;92.12;99368.64;229306;1197;138911;-74
2021/11/03 05:08:29;;;;;;;19.50;17.20;;;;;;;7.11;92.14;99382.14;229275;1199;140076;-73
2021/11/03 05:13:31;;;;;;;21.40;19.10;;;;;;;7.10;91.94;99389.23;229632;1197;139224;-73
2021/11/03 05:18:33;;;;;;;25.50;21.70;;;;;;;7.12;92.37;99398.38;229222;1199;138699;-73
2021/11/03 05:23:35;;;;;;;22.80;19.10;;;;;;;7.11;92.37;99403.66;229275;1197;139439;-76
2021/11/03 05:28:38;;;;;;;22.20;19.90;;;;;;;7.11;92.29;99402.77;229159;1203;138699;-73
2021/11/03 05:33:39;;;;;;;23.10;20.00;;;;;;;7.15;92.25;99412.29;229151;1199;140216;-71
2021/11/03 05:38:41;;;;;;;21.90;19.60;;;;;;;7.21;91.93;99416.79;229083;1190;139528;-71
2021/11/03 05:43:43;;;;;;;28.00;22.60;;;;;;;7.17;91.80;99421.51;229150;1196;138572;-72
2021/11/03 05:48:51;;;;;;;24.60;20.60;;;;;;;7.14;91.57;99433.02;229156;1197;138799;-74
2021/11/03 05:53:53;;;;;;;23.20;20.50;;;;;;;7.11;91.46;99440.33;229485;1196;139680;-70
2021/11/03 05:58:55;;;;;;;24.20;21.50;;;;;;;7.10;91.27;99450.78;229169;1199;138785;-73
2021/11/03 06:03:57;;;;;;;24.00;19.50;;;;;;;7.13;91.39;99459.52;229259;1196;139099;-73
2021/11/03 06:08:58;;;;;;;24.30;21.20;;;;;;;7.14;91.04;99468.98;230094;1200;139303;-74
2021/11/03 06:14:00;;;;;;;27.20;22.20;;;;;;;7.14;91.23;99471.41;229285;1195;139163;-73
2021/11/03 06:19:03;;;;;;;22.60;19.80;;;;;;;7.07;91.21;99479.06;229677;1196;138842;-75
2021/11/03 06:24:05;;;;;;;24.10;21.20;;;;;;;7.06;91.20;99496.32;229935;1194;139615;-73
2021/11/03 06:29:07;;;;;;;22.50;20.10;;;;;;;7.03;90.87;99496.81;230194;1196;138793;-74
2021/11/03 06:34:08;;;;;;;24.60;20.50;;;;;;;6.99;90.55;99507.88;230312;1196;138273;-73
2021/11/03 06:39:10;;;;;;;21.20;18.80;;;;;;;6.90;90.21;99511.08;229409;1196;138595;-73
2021/11/03 06:44:12;;;;;;;19.70;17.60;;;;;;;6.90;89.72;99518.94;230106;1193;139928;-74
2021/11/03 06:49:14;;;;;;;19.60;17.50;;;;;;;6.94;89.63;99524.48;229882;1196;139368;-73
2021/11/03 06:54:17;;;;;;;21.00;17.60;;;;;;;6.92;90.07;99527.68;229436;1191;138636;-74
2021/11/03 06:59:19;;;;;;;21.20;16.70;;;;;;;6.95;90.45;99536.89;229925;1199;139192;-74
2021/11/03 07:04:20;;;;;;;20.10;17.90;;;;;;;7.00;90.29;99536.22;229025;1199;138890;-73
2021/11/03 07:09:23;;;;;;;21.10;18.40;;;;;;;7.06;90.44;99544.18;229570;1197;138737;-72
2021/11/03 07:14:24;;;;;;;24.10;19.00;;;;;;;7.05;90.89;99541.42;230072;1196;138743;-75
2021/11/03 07:19:26;;;;;;;21.10;18.40;;;;;;;7.00;91.19;99544.89;229241;1197;140009;-74
2021/11/03 07:24:28;;;;;;;26.40;19.80;;;;;;;6.96;91.94;99549.55;229251;1198;140171;-74
2021/11/03 07:29:30;;;;;;;23.10;18.80;;;;;;;7.05;92.19;99550.02;229905;1196;139334;-75
2021/11/03 07:34:31;;;;;;;26.00;20.70;;;;;;;7.19;91.40;99563.05;230208;1196;138520;-73
2021/11/03 07:39:34;;;;;;;28.40;21.30;;;;;;;7.25;91.30;99566.29;229154;1200;138647;-73
2021/11/03 07:44:36;;;;;;;29.30;21.50;;;;;;;7.28;91.19;99574.60;229726;1197;138846;-74
2021/11/03 07:49:37;;;;;;;24.40;19.10;;;;;;;7.30;90.93;99584.17;229366;1196;138959;-74
2021/11/03 07:54:39;;;;;;;27.40;21.30;;;;;;;7.35;90.73;99589.16;229536;1195;138617;-73
2021/11/03 07:59:41;;;;;;;32.30;27.00;;;;;;;7.42;90.39;99595.98;229194;1197;141558;-73
2021/11/03 08:04:42;;;;;;;35.30;26.20;;;;;;;7.49;90.11;99600.73;229139;1200;139578;-74
2021/11/03 08:09:46;;;;;;;31.70;25.00;;;;;;;7.53;89.99;99604.86;229233;1196;138161;-72
2021/11/03 08:14:47;;;;;;;27.50;23.30;;;;;;;7.49;89.90;99615.27;229466;1196;138872;-74
2021/11/03 08:19:58;;;;;;;26.10;22.90;;;;;;;7.52;89.82;99614.08;229148;1197;139762;-73
2021/11/03 08:25:01;;;;;;;26.90;23.30;;;;;;;7.64;89.22;99608.98;229707;1196;138761;-73
2021/11/03 08:30:06;;;;;;;28.70;22.40;;;;;;;7.74;88.63;99610.17;230177;1196;138414;-73
2021/11/03 08:35:10;;;;;;;26.60;21.10;;;;;;;7.77;88.18;99613.73;229533;1197;138664;-74
2021/11/03 08:40:15;;;;;;;24.50;20.70;;;;;;;7.79;87.79;99620.98;229183;1197;140499;-72
2021/11/03 08:45:17;;;;;;;25.00;19.20;;;;;;;7.82;87.39;99637.00;229222;1203;139304;-73
2021/11/03 08:50:25;;;;;;;21.60;18.60;;;;;;;7.81;87.31;99637.15;228943;1197;139459;-72
2021/11/03 08:55:29;;;;;;;22.60;20.20;;;;;;;7.81;87.40;99643.13;229354;1197;139228;-72
2021/11/03 09:00:34;;;;;;;21.10;17.90;;;;;;;7.94;87.66;99647.00;229117;1196;139014;-73
2021/11/03 09:05:36;;;;;;;22.30;19.00;;;;;;;8.06;86.73;99650.33;229115;1197;138640;-74
2021/11/03 09:10:45;;;;;;;20.30;15.70;;;;;;;8.13;86.77;99649.23;229080;1197;138745;-75
2021/11/03 09:15:48;;;;;;;20.10;17.10;;;;;;;8.17;85.96;99651.09;229484;1197;139179;-73
2021/11/03 09:20:52;;;;;;;17.20;15.40;;;;;;;8.19;85.31;99658.12;229238;1197;139377;-72
2021/11/03 09:25:56;;;;;;;17.30;15.50;;;;;;;8.18;84.74;99655.67;229238;1197;139656;-75
2021/11/03 09:31:01;;;;;;;19.60;16.10;;;;;;;8.24;84.77;99646.84;230119;1197;138274;-75
2021/11/03 09:36:07;;;;;;;20.10;15.60;;;;;;;8.31;84.89;99660.89;229939;1197;138309;-74
2021/11/03 09:41:29;;;;;;;;;;;;;;;8.36;85.01;99665.33;229869;1197;139214;-74
2021/11/03 09:46:40;;;;;;;17.00;15.00;;;;;;;8.51;85.34;99665.66;229999;1181;124681;-76
2021/11/03 09:51:46;;;;;;;17.30;15.60;;;;;;;8.57;84.94;99676.62;229168;1197;138529;-73
2021/11/03 09:56:55;;;;;;;16.60;14.90;;;;;;;8.67;84.74;99677.77;230454;1197;139629;-75
2021/11/03 10:02:11;;;;;;;19.70;17.60;;;;;;;8.84;84.33;99675.05;229577;1196;140869;-74
2021/11/03 10:07:45;;;;;;;20.10;18.00;;;;;;;8.85;84.50;99680.98;229291;1197;138412;-73
2021/11/03 10:12:48;;;;;;;17.10;15.30;;;;;;;8.82;84.59;99690.18;229885;1195;138951;-76
2021/11/03 10:18:27;;;;;;;17.20;14.50;;;;;;;8.95;84.24;99679.79;230228;1197;139255;-73
2021/11/03 10:23:32;;;;;;;17.80;15.80;;;;;;;9.35;83.39;99679.95;228959;1197;138561;-73
2021/11/03 10:28:43;;;;;;;21.40;18.10;;;;;;;9.63;82.34;99683.08;229015;1196;138508;-74
2021/11/03 10:33:46;;;;;;;21.80;19.30;;;;;;;9.83;81.06;99678.13;229223;1197;138461;-73
2021/11/03 10:39:01;;;;;;;18.00;16.10;;;;;;;10.02;80.16;99682.77;229393;1197;138800;-73
2021/11/03 10:44:03;;;;;;;14.10;12.70;;;;;;;9.86;79.98;99683.20;229222;1197;139393;-76
2021/11/03 10:49:22;;;;;;;16.20;13.30;;;;;;;9.92;78.44;99688.16;230356;1195;138581;-73
2021/11/03 10:54:48;;;;;;;12.00;10.50;;;;;;;10.02;77.48;99688.08;229973;1198;138812;-75
2021/11/03 10:59:57;;;;;;;12.00;10.50;;;;;;;10.80;74.83;99687.02;229359;1196;138593;-74
2021/11/03 11:05:03;;;;;;;11.00;10.00;;;;;;;13.58;65.06;99678.16;229981;1197;139125;-75
2021/11/03 11:10:28;;;;;;;12.40;11.20;;;;;;;12.11;69.36;99683.91;229993;1197;138868;-71
2021/11/03 11:15:45;;;;;;;13.10;11.80;;;;;;;10.49;73.39;99693.00;229794;1197;138250;-74
2021/11/03 11:20:52;;;;;;;11.40;10.30;;;;;;;11.64;70.67;99695.49;230173;1196;138402;-77
2021/11/03 11:26:03;;;;;;;11.90;10.70;;;;;;;13.65;61.79;99696.49;229872;1200;138188;-73
2021/11/03 11:31:10;;;;;;;11.60;10.50;;;;;;;13.55;62.34;99699.96;229296;1197;138675;-74
2021/11/03 11:36:53;;;;;;;11.50;10.30;;;;;;;12.66;64.10;99700.85;229877;1197;138710;-76
2021/11/03 11:42:00;;;;;;;12.40;11.20;;;;;;;11.65;67.36;99706.27;229532;1196;138479;-75
2021/11/03 11:47:11;;;;;;;10.90;9.80;;;;;;;13.51;61.74;99690.42;229296;1197;138718;-73
2021/11/03 11:52:22;;;;;;;11.60;10.40;;;;;;;13.15;62.40;99692.50;229164;1197;138364;-74
2021/11/03 11:57:26;;;;;;;12.10;10.00;;;;;;;11.99;67.20;99692.48;229737;1195;138409;-73
2021/11/03 12:02:33;;;;;;;11.30;10.10;;;;;;;13.16;63.15;99688.76;229378;1197;138770;-74
2021/11/03 12:07:35;;;;;;;11.10;10.00;;;;;;;12.97;64.31;99686.94;229473;1196;138852;-73
2021/11/03 12:13:03;;;;;;;9.70;8.80;;;;;;;12.96;64.06;99683.05;230230;1197;138559;-74
2021/11/03 12:18:14;;;;;;;11.20;9.50;;;;;;;11.99;64.29;99691.88;229827;1197;138827;-73
2021/11/03 12:23:37;;;;;;;14.70;12.20;;;;;;;11.24;66.50;99695.33;229707;1196;138394;-74
2021/11/03 12:29:04;;;;;;;11.10;8.00;;;;;;;11.02;67.26;99693.03;229764;1196;138627;-73
2021/11/03 12:34:05;;;;;;;8.60;7.70;;;;;;;11.08;67.63;99689.55;229797;1197;138873;-74
2021/11/03 12:39:12;;;;;;;11.50;7.90;;;;;;;11.60;65.16;99689.96;229520;1195;139640;-74
2021/11/03 12:44:30;;;;;;;8.40;7.40;;;;;;;11.35;65.99;99688.92;232108;1195;139520;-73
2021/11/03 12:49:31;;;;;;;8.40;7.60;;;;;;;11.78;64.07;99691.16;231988;1195;138302;-73
2021/11/03 12:54:33;;;;;;;9.10;7.70;;;;;;;11.27;65.68;99686.60;231633;1195;138770;-73
2021/11/03 12:59:40;;;;;;;8.40;7.60;;;;;;;10.92;67.74;99688.48;231944;1196;138212;-73
2021/11/03 13:04:44;;;;;;;9.20;7.70;;;;;;;10.83;68.28;99691.44;231011;1197;138285;-74
2021/11/03 13:09:58;;;;;;;9.00;7.40;;;;;;;10.93;68.01;99691.39;229940;1196;138589;-73
2021/11/03 13:15:11;;;;;;;11.20;8.90;;;;;;;12.44;64.26;99694.16;229955;1197;138681;-74
2021/11/03 13:20:32;;;;;;;8.40;7.60;;;;;;;13.22;60.72;99700.36;230363;1195;138968;-74
2021/11/03 13:25:33;;;;;;;7.90;6.90;;;;;;;13.13;60.84;99717.50;229432;1197;139038;-73
2021/11/03 13:30:37;;;;;;;5.70;5.20;;;;;;;12.38;62.41;99721.92;230192;1195;138005;-76
2021/11/03 13:35:39;;;;;;;9.40;7.10;;;;;;;12.24;61.20;99717.82;229980;1196;137846;-74
2021/11/03 13:40:52;;;;;;;7.50;6.50;;;;;;;12.48;60.68;99718.66;229466;1197;137930;-73
2021/11/03 13:46:15;;;;;;;14.00;12.00;;;;;;;12.15;62.07;99729.08;229397;1197;138223;-74
2021/11/03 13:51:31;;;;;;;7.80;6.80;;;;;;;11.31;64.88;99732.25;229417;1196;138368;-75
2021/11/03 13:56:33;;;;;;;8.00;7.20;;;;;;;11.13;66.11;99741.73;229723;1195;138140;-73
2021/11/03 14:01:35;;;;;;;8.20;6.50;;;;;;;10.95;66.64;99732.92;229615;1197;138030;-73
2021/11/03 14:06:58;;;;;;;9.70;7.30;;;;;;;10.89;67.25;99737.48;229467;1196;138436;-72
2021/11/03 14:12:01;;;;;;;8.20;7.10;;;;;;;10.85;67.05;99750.98;229902;1195;137849;-69
2021/11/03 14:17:41;;;;;;;7.80;7.00;;;;;;;10.82;66.61;99760.64;229095;1197;138177;-72
2021/11/03 14:22:43;;;;;;;8.10;6.00;;;;;;;10.69;66.17;99765.12;229481;1200;138003;-74
2021/11/03 14:27:45;;;;;;;7.00;6.30;;;;;;;10.65;66.67;99771.40;229161;1197;139124;-73
2021/11/03 14:32:48;;;;;;;6.50;5.70;;;;;;;10.63;66.83;99767.15;229033;1196;138408;-74
2021/11/03 14:37:51;;;;;;;6.40;5.80;;;;;;;10.49;66.83;99761.60;228930;1196;138237;-73
2021/11/03 14:42:53;;;;;;;6.60;6.00;;;;;;;10.34;67.26;99769.45;229637;1196;138189;-72
2021/11/03 14:47:55;;;;;;;5.80;5.30;;;;;;;10.21;67.83;99769.79;228905;1197;137793;-74
2021/11/03 14:53:01;;;;;;;6.00;5.40;;;;;;;10.10;68.42;99774.27;228869;1190;138240;-73
2021/11/03 14:58:05;;;;;;;6.60;5.90;;;;;;;10.03;68.91;99761.87;229137;1196;138513;-73
2021/11/03 15:03:35;;;;;;;7.90;7.10;;;;;;;9.95;69.38;99763.39;229391;1197;139388;-74
2021/11/03 15:08:41;;;;;;;9.40;8.50;;;;;;;9.87;69.93;99765.28;229178;1196;139528;-72
2021/11/03 15:13:46;;;;;;;9.40;8.20;;;;;;;9.83;70.33;99763.82;229247;1196;138766;-73
2021/11/03 15:18:49;;;;;;;7.30;6.60;;;;;;;9.79;70.54;99767.20;229392;1181;138794;-74
2021/11/03 15:23:51;;;;;;;10.50;9.10;;;;;;;9.71;70.92;99772.66;229147;1197;138132;-74
2021/11/03 15:28:52;;;;;;;12.60;11.10;;;;;;;9.53;71.66;99789.88;229099;1187;138130;-74
2021/11/03 15:33:56;;;;;;;9.90;8.90;;;;;;;9.37;72.45;99787.50;229014;1196;138261;-73
2021/11/03 15:39:03;;;;;;;11.00;9.40;;;;;;;9.28;72.74;99792.80;229667;1197;138062;-73
2021/11/03 15:44:05;;;;;;;10.50;9.40;;;;;;;9.21;72.87;99798.86;229647;1202;137897;-72
2021/11/03 15:49:21;;;;;;;12.80;11.30;;;;;;;9.12;73.40;99798.16;229480;1197;137888;-76
2021/11/03 15:54:23;;;;;;;14.10;12.60;;;;;;;9.07;73.69;99797.81;229374;1196;138652;-73
2021/11/03 15:59:26;;;;;;;12.60;11.00;;;;;;;9.08;73.48;99798.38;229068;1200;164376;-72
2021/11/03 16:04:37;;;;;;;11.50;10.40;;;;;;;9.09;73.50;99805.68;229393;1197;138239;-73
2021/11/03 16:09:38;;;;;;;11.90;10.70;;;;;;;9.01;73.76;99804.55;229831;1196;138217;-71
2021/11/03 16:14:42;;;;;;;11.20;9.70;;;;;;;8.97;73.94;99803.53;229854;1197;138294;-75
2021/11/03 16:19:45;;;;;;;13.40;11.80;;;;;;;8.90;74.32;99808.47;229649;1196;137982;-73
2021/11/03 16:24:48;;;;;;;13.00;11.60;;;;;;;8.82;74.48;99812.65;229910;1197;138086;-73
2021/11/03 16:29:51;;;;;;;15.80;12.40;;;;;;;8.74;74.74;99821.56;229538;1196;138213;-74
2021/11/03 16:34:53;;;;;;;16.00;13.70;;;;;;;8.69;74.84;99825.40;229378;1197;138722;-73
2021/11/03 16:39:55;;;;;;;17.80;14.60;;;;;;;8.71;74.86;99822.62;229936;1186;138316;-74
2021/11/03 16:45:05;;;;;;;17.40;13.30;;;;;;;8.72;74.75;99820.73;229627;1197;138408;-74
2021/11/03 16:50:33;;;;;;;14.40;12.10;;;;;;;8.61;75.24;99831.84;230138;1197;138092;-70
2021/11/03 16:55:37;;;;;;;14.10;12.00;;;;;;;8.55;75.76;99836.25;229008;1199;138299;-74
2021/11/03 17:00:48;;;;;;;13.80;12.40;;;;;;;8.51;76.27;99839.50;229850;1180;138618;-76
2021/11/03 17:05:55;;;;;;;14.00;12.50;;;;;;;8.47;76.32;99837.23;229914;1181;138323;-74
2021/11/03 17:10:59;;;;;;;17.60;13.90;;;;;;;8.42;76.56;99841.48;229944;1195;139572;-75
2021/11/03 17:16:00;;;;;;;16.00;13.90;;;;;;;8.46;76.95;99848.58;229384;1196;139110;-74
2021/11/03 17:21:04;;;;;;;17.70;14.10;;;;;;;8.47;76.75;99850.95;230198;1196;138658;-74
2021/11/03 17:26:22;;;;;;;17.30;14.40;;;;;;;8.42;77.12;99856.41;230289;1197;138359;-72
2021/11/03 17:31:24;;;;;;;16.30;14.40;;;;;;;8.33;77.44;99858.13;230157;1196;138865;-72
2021/11/03 17:36:25;;;;;;;19.30;16.40;;;;;;;8.43;77.24;99856.08;230129;1197;138568;-73
2021/11/03 17:41:28;;;;;;;21.30;17.20;;;;;;;8.35;77.32;99852.89;229806;1196;138441;-72
2021/11/03 17:46:30;;;;;;;21.60;17.70;;;;;;;8.24;77.76;99858.17;230356;1196;138993;-71
2021/11/03 17:51:32;;;;;;;22.10;17.30;;;;;;;8.25;77.72;99852.43;230303;1190;139730;-76
2021/11/03 17:56:35;;;;;;;21.20;18.90;;;;;;;8.39;77.52;99844.05;229714;1196;138133;-72
2021/11/03 18:01:39;;;;;;;22.20;18.80;;;;;;;8.36;77.16;99848.17;229811;1195;138260;-74
2021/11/03 18:06:41;;;;;;;18.70;16.40;;;;;;;8.23;77.67;99847.05;229885;1195;138195;-73
2021/11/03 18:11:47;;;;;;;16.60;14.10;;;;;;;8.20;77.66;99848.70;229442;1196;138820;-74
2021/11/03 18:16:50;;;;;;;17.80;15.30;;;;;;;8.13;77.91;99850.84;229371;1203;138466;-76
2021/11/03 18:21:52;;;;;;;21.60;16.80;;;;;;;8.10;78.10;99845.31;229685;1196;139165;-70
2021/11/03 18:26:57;;;;;;;21.20;18.10;;;;;;;8.07;78.14;99830.46;229587;1196;139330;-73
2021/11/03 18:32:00;;;;;;;22.20;18.40;;;;;;;7.99;78.04;99818.77;229514;1196;138053;-72
2021/11/03 18:37:02;;;;;;;24.10;20.60;;;;;;;7.93;78.48;99828.41;229368;1196;138301;-70
2021/11/03 18:42:11;;;;;;;25.70;21.80;;;;;;;7.77;78.63;99835.36;229112;1196;138334;-71
2021/11/03 18:47:15;;;;;;;25.50;22.30;;;;;;;7.68;79.06;99834.84;229794;1195;138245;-71
2021/11/03 18:52:22;;;;;;;21.80;18.80;;;;;;;7.61;79.34;99831.67;229719;1196;138761;-71
2021/11/03 18:57:31;;;;;;;22.90;19.80;;;;;;;7.71;79.06;99845.64;229874;1196;139086;-76
2021/11/03 19:02:33;;;;;;;24.50;21.30;;;;;;;7.82;78.71;99843.08;229078;1180;139125;-75
2021/11/03 19:07:34;;;;;;;23.70;19.30;;;;;;;7.89;78.27;99836.66;230119;1195;139414;-73
2021/11/03 19:12:39;;;;;;;18.70;16.40;;;;;;;7.90;78.51;99827.79;228683;1197;138899;-71
2021/11/03 19:17:42;;;;;;;17.80;15.10;;;;;;;7.93;78.61;99829.43;229053;1197;138937;-71
2021/11/03 19:22:54;;;;;;;18.40;15.10;;;;;;;7.97;78.67;99817.29;228696;1196;138950;-72
2021/11/03 19:27:59;;;;;;;16.80;14.70;;;;;;;8.03;78.53;99819.08;229554;1196;138364;-72
2021/11/03 19:33:01;;;;;;;16.50;14.80;;;;;;;8.10;78.36;99830.40;229434;1195;139607;-73
2021/11/03 19:38:18;;;;;;;17.20;14.20;;;;;;;8.04;78.30;99827.83;229432;1195;138977;-73
2021/11/03 19:43:22;;;;;;;16.40;14.10;;;;;;;7.97;78.65;99835.16;229051;1196;139427;-73
2021/11/03 19:48:24;;;;;;;15.90;13.80;;;;;;;7.96;78.84;99830.52;229878;1196;138293;-73
2021/11/03 19:53:36;;;;;;;15.70;12.80;;;;;;;7.95;78.98;99827.25;229343;1196;139380;-70
2021/11/03 19:58:39;;;;;;;14.80;11.90;;;;;;;8.00;78.88;99827.46;228957;1196;141858;-72
2021/11/03 20:03:41;;;;;;;16.60;13.00;;;;;;;8.00;78.75;99843.13;229495;1196;139420;-72
2021/11/03 20:08:44;;;;;;;13.70;11.30;;;;;;;7.99;78.99;99842.70;230587;1196;138348;-73
2021/11/03 20:13:53;;;;;;;16.10;12.50;;;;;;;7.97;78.99;99844.45;230314;1195;139095;-75
2021/11/03 20:19:02;;;;;;;14.60;11.70;;;;;;;8.01;79.06;99851.76;229968;1195;139300;-73
2021/11/03 20:24:06;;;;;;;13.00;10.70;;;;;;;8.07;78.79;99865.59;229178;1196;138723;-71
2021/11/03 20:29:08;;;;;;;12.40;10.50;;;;;;;8.09;78.53;99866.98;229163;1196;138425;-71
2021/11/03 20:34:32;;;;;;;12.20;10.80;;;;;;;8.07;78.62;99865.38;229142;1195;138334;-70
2021/11/03 20:39:37;;;;;;;11.40;10.00;;;;;;;8.03;78.86;99868.55;229126;1197;138408;-71
2021/11/03 20:44:39;;;;;;;12.30;9.50;;;;;;;7.99;79.07;99875.78;229213;1196;138835;-74
2021/11/03 20:49:42;;;;;;;14.20;10.80;;;;;;;7.95;79.20;99864.81;229388;1196;138960;-74
2021/11/03 20:54:43;;;;;;;15.40;11.80;;;;;;;8.00;79.03;99861.68;229244;1196;138871;-74
2021/11/03 20:59:45;;;;;;;12.80;11.10;;;;;;;8.06;78.84;99844.13;229562;1196;138506;-73
2021/11/03 21:04:47;;;;;;;13.20;11.40;;;;;;;8.07;78.63;99839.92;229914;1195;138912;-73
2021/11/03 21:09:48;;;;;;;13.00;10.60;;;;;;;8.03;78.96;99849.97;229549;1196;138515;-71
2021/11/03 21:14:50;;;;;;;12.50;10.90;;;;;;;8.01;79.61;99845.94;229858;1196;139248;-72
2021/11/03 21:19:52;;;;;;;12.50;10.80;;;;;;;7.98;79.87;99846.98;229350;1196;138773;-74
2021/11/03 21:24:54;;;;;;;12.60;10.50;;;;;;;7.98;79.63;99844.02;229946;1196;139428;-74
2021/11/03 21:29:56;;;;;;;12.80;10.70;;;;;;;7.98;79.66;99849.48;229245;1180;138808;-73
2021/11/03 21:34:58;;;;;;;12.50;11.10;;;;;;;7.98;79.35;99845.21;230467;1196;139374;-71
2021/11/03 21:39:59;;;;;;;12.70;11.40;;;;;;;7.93;79.70;99833.67;232638;1196;138305;-71
2021/11/03 21:45:01;;;;;;;12.20;10.80;;;;;;;7.80;79.80;99823.81;231188;1195;139062;-74
2021/11/03 21:50:03;;;;;;;12.20;10.30;;;;;;;7.78;80.00;99818.05;229444;1195;140084;-73
2021/11/03 21:55:08;;;;;;;11.50;9.80;;;;;;;7.81;79.61;99823.23;229602;1194;139960;-73
2021/11/03 22:00:13;;;;;;;13.50;12.00;;;;;;;7.81;79.70;99829.16;229120;1196;138604;-73
2021/11/03 22:05:16;;;;;;;12.40;11.10;;;;;;;7.79;79.54;99839.73;228906;1195;138552;-73
2021/11/03 22:10:19;;;;;;;13.10;10.50;;;;;;;7.72;79.70;99849.23;229291;1187;138810;-72
2021/11/03 22:15:22;;;;;;;11.00;9.80;;;;;;;7.67;79.77;99846.75;230161;1196;139435;-71
2021/11/03 22:20:27;;;;;;;11.00;9.90;;;;;;;7.69;79.52;99846.13;229440;1197;138903;-75
2021/11/03 22:25:29;;;;;;;12.20;10.80;;;;;;;7.72;79.41;99842.70;229203;1196;138546;-75
2021/11/03 22:30:30;;;;;;;12.00;10.80;;;;;;;7.79;79.02;99839.85;229431;1197;138019;-72
2021/11/03 22:35:32;;;;;;;11.90;10.20;;;;;;;7.81;78.93;99840.40;229254;1199;138286;-74
2021/11/03 22:40:34;;;;;;;12.30;10.20;;;;;;;7.74;79.05;99848.25;229857;1196;137987;-73
2021/11/03 22:45:37;;;;;;;12.80;10.10;;;;;;;7.71;79.10;99848.08;229914;1197;137983;-74
2021/11/03 22:50:39;;;;;;;10.90;9.20;;;;;;;7.69;79.19;99841.92;229766;1196;139229;-73
2021/11/03 22:55:41;;;;;;;11.30;9.60;;;;;;;7.77;78.93;99816.38;229348;1196;139159;-71
2021/11/03 23:00:46;;;;;;;10.30;9.10;;;;;;;7.75;78.46;99799.07;229333;1197;138007;-71
2021/11/03 23:05:49;;;;;;;11.40;10.00;;;;;;;7.71;78.89;99805.28;228984;1198;140615;-73
2021/11/03 23:10:51;;;;;;;11.00;9.20;;;;;;;7.72;78.89;99807.48;228702;1198;138456;-74
2021/11/03 23:15:53;;;;;;;10.20;9.10;;;;;;;7.65;78.90;99814.43;229177;1196;138881;-74